createdAt,value
2022-12-05T00:00:20.098Z,82.67
2022-12-05T00:01:31.806Z,83.75
2022-12-05T00:02:28.474Z,83.30
2022-12-05T00:03:25.094Z,84.00
2022-12-05T00:04:22.063Z,84.32
2022-12-05T00:05:18.745Z,84.97
2022-12-05T00:06:15.972Z,85.04
2022-12-05T00:07:12.670Z,85.21
2022-12-05T00:08:09.384Z,84.64
2022-12-05T00:09:07.999Z,84.39
2022-12-05T00:10:06.366Z,85.42
2022-12-05T00:11:02.934Z,85.69
2022-12-05T00:11:59.566Z,85.60
2022-12-05T00:12:56.189Z,85.21
2022-12-05T00:13:54.807Z,85.62
2022-12-05T00:14:51.570Z,84.88
2022-12-05T00:15:48.180Z,85.49
2022-12-05T00:16:44.887Z,84.92
2022-12-05T00:17:41.733Z,85.33
2022-12-05T00:18:38.478Z,85.11
2022-12-05T00:19:35.098Z,84.68
2022-12-05T00:20:31.783Z,84.15
2022-12-05T00:21:30.936Z,84.02
2022-12-05T00:22:27.554Z,84.15
2022-12-05T00:23:24.107Z,85.03
2022-12-05T00:24:20.896Z,85.30
2022-12-05T00:25:17.710Z,84.62
2022-12-05T00:26:14.577Z,84.38
2022-12-05T00:27:11.235Z,84.15
2022-12-05T00:28:07.914Z,83.90
2022-12-05T00:29:04.803Z,84.09
2022-12-05T00:30:01.499Z,83.47
2022-12-05T00:30:58.123Z,83.69
2022-12-05T00:31:54.747Z,84.41
2022-12-05T00:32:51.375Z,84.46
2022-12-05T00:33:49.323Z,84.56
2022-12-05T00:34:45.987Z,83.74
2022-12-05T00:35:42.546Z,83.88
2022-12-05T00:36:39.467Z,84.28
2022-12-05T00:37:36.458Z,84.71
2022-12-05T00:38:33.121Z,85.23
2022-12-05T00:39:29.726Z,85.36
2022-12-05T00:40:26.323Z,85.69
2022-12-05T00:41:25.368Z,85.69
2022-12-05T00:42:21.950Z,85.43
2022-12-05T00:43:18.520Z,85.80
2022-12-05T00:44:15.088Z,85.10
2022-12-05T00:45:11.762Z,85.55
2022-12-05T00:46:11.296Z,85.79
2022-12-05T00:47:08.106Z,85.20
2022-12-05T00:48:05.039Z,84.54
2022-12-05T00:49:03.806Z,83.42
2022-12-05T00:50:00.549Z,83.91
2022-12-05T00:51:15.501Z,84.66
2022-12-05T00:52:12.082Z,84.88
2022-12-05T00:53:08.678Z,84.04
2022-12-05T00:54:08.682Z,84.80
2022-12-05T00:55:05.712Z,84.79
2022-12-05T00:56:04.026Z,84.61
2022-12-05T00:57:00.610Z,85.34
2022-12-05T00:57:57.158Z,84.22
2022-12-05T00:58:55.148Z,84.13
2022-12-05T00:59:51.749Z,83.65
2022-12-05T01:00:48.327Z,84.32
2022-12-05T01:01:46.540Z,84.47
2022-12-05T01:02:43.230Z,84.96
2022-12-05T01:03:40.492Z,85.06
2022-12-05T01:04:37.181Z,85.76
2022-12-05T01:05:34.492Z,85.87
2022-12-05T01:06:31.211Z,86.30
2022-12-05T01:07:27.858Z,86.08
2022-12-05T01:08:25.069Z,85.86
2022-12-05T01:09:22.132Z,86.23
2022-12-05T01:10:18.732Z,85.84
2022-12-05T01:11:17.915Z,86.02
2022-12-05T01:12:14.566Z,86.01
2022-12-05T01:13:11.136Z,86.36
2022-12-05T01:14:07.999Z,85.38
2022-12-05T01:15:04.954Z,85.00
2022-12-05T01:16:02.510Z,85.28
2022-12-05T01:16:59.248Z,84.94
2022-12-05T01:17:55.887Z,84.30
2022-12-05T01:18:52.914Z,83.77
2022-12-05T01:19:49.530Z,84.69
2022-12-05T01:20:46.903Z,84.65
2022-12-05T01:21:44.008Z,84.21
2022-12-05T01:22:40.650Z,83.81
2022-12-05T01:23:37.752Z,83.74
2022-12-05T01:24:34.348Z,84.41
2022-12-05T01:25:30.926Z,84.88
2022-12-05T01:26:27.732Z,85.41
2022-12-05T01:27:24.398Z,84.61
2022-12-05T01:28:21.108Z,84.31
2022-12-05T01:29:21.347Z,83.79
2022-12-05T01:30:18.108Z,84.35
2022-12-05T01:31:29.745Z,84.87
2022-12-05T01:32:26.350Z,84.92
2022-12-05T01:33:22.947Z,85.07
2022-12-05T01:34:19.893Z,84.70
2022-12-05T01:35:16.689Z,85.11
2022-12-05T01:36:13.409Z,84.94
2022-12-05T01:37:10.052Z,84.50
2022-12-05T01:38:07.616Z,84.54
2022-12-05T01:39:04.246Z,85.18
2022-12-05T01:40:00.860Z,84.85
2022-12-05T01:41:02.374Z,85.31
2022-12-05T01:41:59.719Z,85.18
2022-12-05T01:42:56.496Z,84.04
2022-12-05T01:43:58.138Z,84.10
2022-12-05T01:44:54.654Z,84.89
2022-12-05T01:45:51.516Z,85.10
2022-12-05T01:46:50.657Z,85.07
2022-12-05T01:47:47.450Z,85.07
2022-12-05T01:48:44.582Z,84.41
2022-12-05T01:49:42.872Z,83.89
2022-12-05T01:50:39.541Z,84.29
2022-12-05T01:51:39.314Z,85.13
2022-12-05T01:52:36.375Z,84.67
2022-12-05T01:53:34.045Z,84.10
2022-12-05T01:54:30.798Z,84.48
2022-12-05T01:55:27.797Z,84.80
2022-12-05T01:56:24.628Z,84.43
2022-12-05T01:57:22.798Z,85.01
2022-12-05T01:58:19.920Z,84.91
2022-12-05T01:59:18.698Z,84.63
2022-12-05T02:00:18.676Z,84.83
2022-12-05T02:01:17.785Z,84.46
2022-12-05T02:02:14.809Z,84.29
2022-12-05T02:03:17.363Z,83.96
2022-12-05T02:04:14.039Z,83.96
2022-12-05T02:05:18.959Z,84.45
2022-12-05T02:06:16.313Z,83.76
2022-12-05T02:07:13.035Z,84.08
2022-12-05T02:08:11.254Z,84.44
2022-12-05T02:09:07.906Z,84.88
2022-12-05T02:10:07.005Z,84.46
2022-12-05T02:11:07.311Z,84.85
2022-12-05T02:12:04.819Z,84.55
2022-12-05T02:13:15.057Z,84.30
2022-12-05T02:14:41.129Z,84.73
2022-12-05T02:15:45.677Z,83.85
2022-12-05T02:16:53.995Z,83.30
2022-12-05T02:18:05.835Z,83.43
2022-12-05T02:19:20.175Z,83.39
2022-12-05T02:20:19.539Z,83.89
2022-12-05T02:21:16.134Z,84.59
2022-12-05T02:22:42.986Z,85.00
2022-12-05T02:23:51.440Z,84.65
2022-12-05T02:25:19.841Z,83.45
2022-12-05T02:26:38.002Z,83.83
2022-12-05T02:27:43.567Z,83.66
2022-12-05T02:29:04.771Z,82.93
2022-12-05T02:30:05.812Z,83.43
2022-12-05T02:31:28.823Z,83.80
2022-12-05T02:33:01.343Z,83.41
2022-12-05T02:34:16.648Z,82.90
2022-12-05T02:35:28.109Z,82.74
2022-12-05T02:36:56.311Z,82.92
2022-12-05T02:38:25.141Z,83.14
2022-12-05T02:39:45.648Z,83.46
2022-12-05T02:40:57.331Z,84.36
2022-12-05T02:42:07.101Z,84.68
2022-12-05T02:43:25.201Z,84.53
2022-12-05T02:44:30.429Z,84.19
2022-12-05T02:45:31.291Z,84.37
2022-12-05T02:46:30.975Z,84.92
2022-12-05T02:47:33.058Z,85.00
2022-12-05T02:48:29.892Z,84.46
2022-12-05T02:49:31.745Z,84.04
2022-12-05T02:50:35.577Z,84.07
2022-12-05T02:51:36.706Z,84.90
2022-12-05T02:52:34.778Z,85.40
2022-12-05T02:53:32.197Z,85.26
2022-12-05T02:54:33.942Z,85.17
2022-12-05T02:55:32.398Z,84.85
2022-12-05T02:56:32.190Z,84.88
2022-12-05T02:57:29.522Z,84.03
2022-12-05T02:58:33.815Z,83.59
2022-12-05T02:59:30.454Z,83.73
2022-12-05T03:00:27.142Z,83.23
2022-12-05T03:01:27.638Z,83.16
2022-12-05T03:02:32.547Z,83.15
2022-12-05T03:03:30.583Z,83.51
2022-12-05T03:04:29.117Z,84.15
2022-12-05T03:05:32.972Z,83.78
2022-12-05T03:06:42.628Z,82.78
2022-12-05T03:07:41.077Z,83.05
2022-12-05T03:08:59.099Z,83.50
2022-12-05T03:10:01.649Z,83.32
2022-12-05T03:11:00.126Z,83.16
2022-12-05T03:12:10.163Z,83.26
2022-12-05T03:13:14.020Z,82.98
2022-12-05T03:14:21.707Z,83.26
2022-12-05T03:15:24.803Z,83.93
2022-12-05T03:16:28.719Z,84.02
2022-12-05T03:17:47.099Z,83.09
2022-12-05T03:18:56.713Z,83.67
2022-12-05T03:19:53.438Z,83.98
2022-12-05T03:21:13.112Z,84.65
2022-12-05T03:22:19.074Z,83.97
2022-12-05T03:23:21.022Z,83.50
2022-12-05T03:24:17.747Z,83.51
2022-12-05T03:25:15.017Z,83.08
2022-12-05T03:26:42.731Z,82.59
2022-12-05T03:27:53.866Z,83.30
2022-12-05T03:28:57.066Z,83.64
2022-12-05T03:30:02.147Z,84.50
2022-12-05T03:31:06.524Z,85.21
2022-12-05T03:32:47.854Z,85.10
2022-12-05T03:33:49.552Z,84.77
2022-12-05T03:34:57.471Z,84.86
2022-12-05T03:36:11.847Z,85.26
2022-12-05T03:37:18.932Z,85.32
2022-12-05T03:38:29.959Z,84.94
2022-12-05T03:39:32.613Z,84.89
2022-12-05T03:40:32.050Z,84.64
2022-12-05T03:41:43.008Z,83.99
2022-12-05T03:42:43.552Z,84.44
2022-12-05T03:43:50.394Z,83.80
2022-12-05T03:44:54.879Z,83.95
2022-12-05T03:46:03.678Z,84.18
2022-12-05T03:47:12.879Z,83.79
2022-12-05T03:48:24.623Z,84.44
2022-12-05T03:49:33.714Z,84.65
2022-12-05T03:50:31.077Z,84.79
2022-12-05T03:51:34.392Z,85.15
2022-12-05T03:52:57.146Z,85.00
2022-12-05T03:54:02.365Z,84.90
2022-12-05T03:55:04.443Z,85.13
2022-12-05T03:56:13.484Z,85.16
2022-12-05T03:57:22.185Z,85.47
2022-12-05T03:58:26.718Z,85.27
2022-12-05T03:59:52.793Z,85.20
2022-12-05T04:00:54.196Z,85.54
2022-12-05T04:01:53.111Z,85.81
2022-12-05T04:02:54.821Z,85.12
2022-12-05T04:03:58.450Z,85.26
2022-12-05T04:05:01.206Z,85.63
2022-12-05T04:06:01.543Z,84.23
2022-12-05T04:07:00.185Z,83.53
2022-12-05T04:08:03.795Z,83.08
2022-12-05T04:09:17.496Z,82.69
2022-12-05T04:10:19.668Z,83.00
2022-12-05T04:11:20.985Z,83.63
2022-12-05T04:12:23.742Z,83.47
2022-12-05T04:13:23.822Z,84.05
2022-12-05T04:14:28.386Z,84.24
2022-12-05T04:15:51.561Z,84.78
2022-12-05T04:17:15.437Z,84.43
2022-12-05T04:18:12.685Z,84.46
2022-12-05T04:19:24.317Z,84.01
2022-12-05T04:20:45.152Z,83.90
2022-12-05T04:21:46.889Z,83.99
2022-12-05T04:22:44.592Z,83.89
2022-12-05T04:23:46.294Z,83.97
2022-12-05T04:25:03.424Z,83.34
2022-12-05T04:26:08.744Z,83.66
2022-12-05T04:27:27.383Z,83.42
2022-12-05T04:28:29.374Z,83.64
2022-12-05T04:29:32.320Z,83.45
2022-12-05T04:30:40.733Z,82.88
2022-12-05T04:31:43.459Z,83.42
2022-12-05T04:33:04.423Z,83.86
2022-12-05T04:34:06.729Z,82.38
2022-12-05T04:35:09.596Z,82.81
2022-12-05T04:36:13.951Z,83.29
2022-12-05T04:37:16.335Z,83.92
2022-12-05T04:38:25.554Z,83.96
2022-12-05T04:39:54.495Z,84.04
2022-12-05T04:41:05.127Z,84.18
2022-12-05T04:42:07.131Z,83.35
2022-12-05T04:43:06.331Z,82.85
2022-12-05T04:44:07.908Z,83.17
2022-12-05T04:45:10.442Z,83.20
2022-12-05T04:46:09.081Z,83.05
2022-12-05T04:47:09.708Z,83.77
2022-12-05T04:48:12.135Z,83.61
2022-12-05T04:49:10.184Z,83.56
2022-12-05T04:50:09.666Z,83.49
2022-12-05T04:51:09.819Z,83.62
2022-12-05T04:52:10.108Z,83.21
2022-12-05T04:53:09.114Z,83.07
2022-12-05T04:54:17.436Z,82.46
2022-12-05T04:55:20.232Z,82.01
2022-12-05T04:56:20.727Z,82.30
2022-12-05T04:57:31.380Z,81.63
2022-12-05T04:58:29.923Z,81.63
2022-12-05T04:59:26.594Z,82.25
2022-12-05T05:00:23.397Z,82.84
2022-12-05T05:01:28.253Z,83.47
2022-12-05T05:02:31.641Z,83.55
2022-12-05T05:03:44.096Z,82.45
2022-12-05T05:04:47.895Z,83.08
2022-12-05T05:05:48.689Z,82.91
2022-12-05T05:06:45.343Z,83.47
2022-12-05T05:07:51.840Z,83.03
2022-12-05T05:08:51.687Z,83.36
2022-12-05T05:09:48.337Z,83.21
2022-12-05T05:10:52.579Z,82.88
2022-12-05T05:11:49.298Z,82.72
2022-12-05T05:12:46.118Z,82.66
2022-12-05T05:13:42.712Z,81.88
2022-12-05T05:14:39.342Z,82.24
2022-12-05T05:15:35.963Z,82.50
2022-12-05T05:16:36.678Z,83.01
2022-12-05T05:17:33.387Z,82.85
2022-12-05T05:18:30.117Z,82.75
2022-12-05T05:19:26.784Z,82.69
2022-12-05T05:20:27.447Z,82.94
2022-12-05T05:21:34.616Z,83.21
2022-12-05T05:22:31.154Z,82.49
2022-12-05T05:23:27.776Z,83.22
2022-12-05T05:24:26.351Z,83.34
2022-12-05T05:25:24.316Z,82.33
2022-12-05T05:26:21.806Z,82.66
2022-12-05T05:27:18.461Z,83.28
2022-12-05T05:28:15.082Z,83.72
2022-12-05T05:29:13.388Z,83.58
2022-12-05T05:30:10.282Z,83.59
2022-12-05T05:31:07.717Z,82.98
2022-12-05T05:32:04.330Z,82.55
2022-12-05T05:33:01.348Z,82.71
2022-12-05T05:33:58.334Z,82.98
2022-12-05T05:34:54.892Z,83.14
2022-12-05T05:35:51.419Z,83.66
2022-12-05T05:36:52.140Z,83.63
2022-12-05T05:37:48.744Z,83.44
2022-12-05T05:38:48.500Z,83.13
2022-12-05T05:39:45.099Z,83.26
2022-12-05T05:40:41.826Z,83.11
2022-12-05T05:41:38.385Z,82.56
2022-12-05T05:42:35.148Z,82.66
2022-12-05T05:43:31.982Z,83.12
2022-12-05T05:44:28.595Z,83.81
2022-12-05T05:45:25.210Z,83.83
2022-12-05T05:46:25.083Z,83.63
2022-12-05T05:47:21.749Z,82.26
2022-12-05T05:48:18.500Z,82.88
2022-12-05T05:49:15.115Z,82.83
2022-12-05T05:50:16.286Z,83.46
2022-12-05T05:51:17.261Z,83.25
2022-12-05T05:52:13.947Z,83.75
2022-12-05T05:53:10.560Z,84.00
2022-12-05T05:54:07.237Z,83.77
2022-12-05T05:55:05.622Z,83.65
2022-12-05T05:56:04.804Z,83.68
2022-12-05T05:57:01.422Z,83.68
2022-12-05T05:57:58.112Z,83.44
2022-12-05T05:59:03.394Z,83.89
2022-12-05T06:00:00.191Z,84.06
2022-12-05T06:01:07.663Z,84.53
2022-12-05T06:02:04.280Z,84.54
2022-12-05T06:03:00.995Z,84.78
2022-12-05T06:03:58.792Z,84.40
2022-12-05T06:04:55.552Z,83.88
2022-12-05T06:05:59.156Z,83.70
2022-12-05T06:06:55.687Z,83.28
2022-12-05T06:07:55.397Z,83.29
2022-12-05T06:08:52.064Z,83.60
2022-12-05T06:09:48.655Z,83.45
2022-12-05T06:10:45.221Z,83.92
2022-12-05T06:11:41.855Z,84.08
2022-12-05T06:12:38.579Z,83.98
2022-12-05T06:13:35.397Z,84.09
2022-12-05T06:14:32.171Z,84.33
2022-12-05T06:15:28.729Z,84.58
2022-12-05T06:16:25.695Z,84.21
2022-12-05T06:17:22.350Z,84.33
2022-12-05T06:18:18.902Z,83.91
2022-12-05T06:19:15.494Z,84.17
2022-12-05T06:20:12.338Z,84.28
2022-12-05T06:21:15.973Z,84.31
2022-12-05T06:22:13.052Z,83.93
2022-12-05T06:23:09.720Z,83.28
2022-12-05T06:24:06.797Z,83.95
2022-12-05T06:25:03.820Z,84.19
2022-12-05T06:26:00.440Z,83.55
2022-12-05T06:26:57.114Z,82.83
2022-12-05T06:27:53.727Z,83.50
2022-12-05T06:28:50.507Z,83.88
2022-12-05T06:29:47.084Z,84.09
2022-12-05T06:30:43.764Z,84.03
2022-12-05T06:31:41.975Z,84.54
2022-12-05T06:32:38.646Z,84.37
2022-12-05T06:33:35.371Z,84.37
2022-12-05T06:34:32.779Z,83.60
2022-12-05T06:35:29.404Z,82.40
2022-12-05T06:36:26.794Z,82.01
2022-12-05T06:37:23.458Z,81.92
2022-12-05T06:38:20.055Z,81.41
2022-12-05T06:39:16.667Z,81.89
2022-12-05T06:40:14.035Z,82.23
2022-12-05T06:41:18.100Z,82.71
2022-12-05T06:42:14.688Z,82.77
2022-12-05T06:43:11.693Z,82.19
2022-12-05T06:44:09.821Z,82.05
2022-12-05T06:45:07.023Z,81.87
2022-12-05T06:46:08.383Z,81.87
2022-12-05T06:47:05.212Z,82.02
2022-12-05T06:48:01.813Z,81.69
2022-12-05T06:48:59.448Z,81.82
2022-12-05T06:49:56.275Z,81.31
2022-12-05T06:50:53.862Z,80.87
2022-12-05T06:51:50.432Z,80.65
2022-12-05T06:52:47.062Z,81.41
2022-12-05T06:53:44.109Z,81.64
2022-12-05T06:54:40.743Z,82.19
2022-12-05T06:55:37.454Z,82.55
2022-12-05T06:56:34.048Z,83.22
2022-12-05T06:57:31.152Z,82.95
2022-12-05T06:58:28.528Z,82.42
2022-12-05T06:59:25.104Z,81.94
2022-12-05T07:00:40.285Z,82.31
2022-12-05T07:01:41.483Z,83.17
2022-12-05T07:02:38.450Z,82.72
2022-12-05T07:03:35.354Z,82.87
2022-12-05T07:04:31.931Z,82.60
2022-12-05T07:05:28.554Z,82.93
2022-12-05T07:06:25.359Z,82.65
2022-12-05T07:07:22.071Z,82.43
2022-12-05T07:08:18.726Z,81.61
2022-12-05T07:09:16.818Z,81.26
2022-12-05T07:10:13.418Z,81.87
2022-12-05T07:11:10.043Z,82.52
2022-12-05T07:12:06.801Z,81.83
2022-12-05T07:13:03.476Z,81.75
2022-12-05T07:14:00.432Z,82.18
2022-12-05T07:14:57.011Z,82.36
2022-12-05T07:15:53.691Z,82.06
2022-12-05T07:16:51.615Z,82.02
2022-12-05T07:17:48.256Z,81.37
2022-12-05T07:18:44.864Z,80.41
2022-12-05T07:19:41.467Z,81.12
2022-12-05T07:21:03.884Z,81.29
2022-12-05T07:21:54.682Z,81.72
2022-12-05T07:22:51.264Z,82.12
2022-12-05T07:23:50.110Z,82.09
2022-12-05T07:24:47.263Z,81.40
2022-12-05T07:25:43.972Z,80.53
2022-12-05T07:26:40.554Z,79.61
2022-12-05T07:27:37.111Z,80.31
2022-12-05T07:28:33.812Z,80.08
2022-12-05T07:29:30.617Z,80.50
2022-12-05T07:30:27.226Z,80.21
2022-12-05T07:31:26.021Z,80.05
2022-12-05T07:32:22.744Z,80.04
2022-12-05T07:33:19.405Z,80.39
2022-12-05T07:34:15.979Z,80.47
2022-12-05T07:35:12.592Z,79.51
2022-12-05T07:36:15.105Z,79.59
2022-12-05T07:37:13.053Z,79.78
2022-12-05T07:38:09.690Z,79.63
2022-12-05T07:39:06.335Z,80.31
2022-12-05T07:40:02.963Z,80.78
2022-12-05T07:40:59.690Z,80.00
2022-12-05T07:41:56.338Z,79.52
2022-12-05T07:42:55.796Z,79.33
2022-12-05T07:43:53.930Z,79.21
2022-12-05T07:44:50.525Z,79.56
2022-12-05T07:45:47.254Z,79.68
2022-12-05T07:46:44.077Z,79.63
2022-12-05T07:47:40.672Z,79.81
2022-12-05T07:48:37.478Z,79.59
2022-12-05T07:49:34.193Z,79.64
2022-12-05T07:50:30.800Z,80.01
2022-12-05T07:51:27.480Z,79.64
2022-12-05T07:52:24.238Z,78.97
2022-12-05T07:53:20.840Z,78.89
2022-12-05T07:54:17.531Z,78.51
2022-12-05T07:55:14.167Z,78.51
2022-12-05T07:56:17.289Z,78.90
2022-12-05T07:57:13.915Z,79.73
2022-12-05T07:58:10.498Z,80.66
2022-12-05T07:59:07.039Z,80.71
2022-12-05T08:00:04.588Z,80.15
2022-12-05T08:01:12.964Z,79.97
2022-12-05T08:02:09.697Z,78.99
2022-12-05T08:03:06.353Z,79.48
2022-12-05T08:04:03.095Z,80.04
2022-12-05T08:04:59.772Z,80.56
2022-12-05T08:05:56.370Z,81.62
2022-12-05T08:06:53.087Z,81.59
2022-12-05T08:07:49.812Z,80.95
2022-12-05T08:08:51.197Z,80.96
2022-12-05T08:09:47.888Z,80.96
2022-12-05T08:10:44.485Z,80.75
2022-12-05T08:11:41.265Z,80.10
2022-12-05T08:12:38.409Z,79.55
2022-12-05T08:13:35.203Z,79.75
2022-12-05T08:14:32.057Z,79.96
2022-12-05T08:15:28.787Z,80.14
2022-12-05T08:16:28.933Z,80.53
2022-12-05T08:17:26.702Z,80.90
2022-12-05T08:18:27.322Z,80.35
2022-12-05T08:19:24.261Z,80.01
2022-12-05T08:20:20.929Z,80.38
2022-12-05T08:21:19.663Z,80.17
2022-12-05T08:22:16.226Z,80.14
2022-12-05T08:23:12.849Z,79.71
2022-12-05T08:24:09.591Z,79.68
2022-12-05T08:25:06.747Z,79.97
2022-12-05T08:26:27.017Z,80.99
2022-12-05T08:27:23.676Z,80.04
2022-12-05T08:28:20.470Z,79.72
2022-12-05T08:29:21.307Z,79.66
2022-12-05T08:30:18.305Z,79.95
2022-12-05T08:31:17.625Z,80.22
2022-12-05T08:32:14.340Z,79.86
2022-12-05T08:33:10.981Z,79.73
2022-12-05T08:34:08.231Z,79.36
2022-12-05T08:35:05.262Z,79.86
2022-12-05T08:36:03.689Z,79.50
2022-12-05T08:37:00.301Z,80.25
2022-12-05T08:37:56.874Z,79.87
2022-12-05T08:38:58.642Z,79.69
2022-12-05T08:39:55.401Z,79.84
2022-12-05T08:40:52.039Z,80.16
2022-12-05T08:41:49.721Z,80.19
2022-12-05T08:42:46.357Z,79.73
2022-12-05T08:43:44.425Z,78.99
2022-12-05T08:44:41.050Z,78.22
2022-12-05T08:45:37.737Z,79.23
2022-12-05T08:46:38.091Z,79.30
2022-12-05T08:47:37.447Z,78.75
2022-12-05T08:48:35.639Z,78.72
2022-12-05T08:49:32.433Z,78.32
2022-12-05T08:50:29.013Z,77.17
2022-12-05T08:51:25.650Z,76.68
2022-12-05T08:52:22.936Z,76.56
2022-12-05T08:53:19.532Z,77.09
2022-12-05T08:54:16.677Z,76.86
2022-12-05T08:55:13.329Z,76.91
2022-12-05T08:56:10.942Z,77.59
2022-12-05T08:57:07.538Z,78.07
2022-12-05T08:58:04.426Z,78.30
2022-12-05T08:59:05.976Z,77.50
2022-12-05T09:00:06.071Z,77.52
2022-12-05T09:01:18.119Z,78.62
2022-12-05T09:02:14.996Z,79.04
2022-12-05T09:03:12.446Z,78.27
2022-12-05T09:04:09.618Z,78.31
2022-12-05T09:05:26.510Z,78.67
2022-12-05T09:06:25.259Z,78.84
2022-12-05T09:07:21.896Z,78.75
2022-12-05T09:08:18.564Z,78.96
2022-12-05T09:09:16.382Z,79.07
2022-12-05T09:10:13.182Z,78.41
2022-12-05T09:11:21.439Z,77.15
2022-12-05T09:12:18.094Z,76.59
2022-12-05T09:13:14.940Z,76.01
2022-12-05T09:14:12.192Z,75.98
2022-12-05T09:15:10.687Z,76.98
2022-12-05T09:16:12.326Z,77.74
2022-12-05T09:17:09.051Z,78.03
2022-12-05T09:18:05.643Z,76.86
2022-12-05T09:19:02.238Z,77.91
2022-12-05T09:19:58.863Z,77.37
2022-12-05T09:20:56.671Z,77.05
2022-12-05T09:21:54.111Z,76.35
2022-12-05T09:22:52.410Z,76.78
2022-12-05T09:23:49.205Z,76.87
2022-12-05T09:24:45.870Z,76.55
2022-12-05T09:25:42.535Z,76.05
2022-12-05T09:26:39.974Z,75.17
2022-12-05T09:27:37.061Z,76.59
2022-12-05T09:28:35.260Z,76.38
2022-12-05T09:29:31.824Z,76.05
2022-12-05T09:30:29.033Z,75.21
2022-12-05T09:31:27.464Z,75.43
2022-12-05T09:32:24.447Z,75.07
2022-12-05T09:33:21.053Z,75.74
2022-12-05T09:34:18.670Z,76.91
2022-12-05T09:35:15.717Z,76.76
2022-12-05T09:36:16.320Z,77.13
2022-12-05T09:37:37.423Z,76.87
2022-12-05T09:38:29.538Z,77.11
2022-12-05T09:39:26.114Z,77.22
2022-12-05T09:40:22.825Z,76.91
2022-12-05T09:42:10.252Z,76.30
2022-12-05T09:43:09.110Z,75.10
2022-12-05T09:44:14.400Z,75.85
2022-12-05T09:45:15.278Z,76.59
2022-12-05T09:46:29.280Z,77.79
2022-12-05T09:47:28.118Z,76.71
2022-12-05T09:48:25.043Z,75.32
2022-12-05T09:49:23.947Z,75.06
2022-12-05T09:50:25.240Z,76.13
2022-12-05T09:51:22.274Z,76.56
2022-12-05T09:52:27.645Z,75.52
2022-12-05T09:53:30.707Z,76.24
2022-12-05T09:54:28.166Z,76.85
2022-12-05T09:55:25.708Z,76.32
2022-12-05T09:56:30.794Z,76.68
2022-12-05T09:57:35.170Z,76.76
2022-12-05T09:58:40.595Z,76.56
2022-12-05T09:59:37.204Z,76.95
2022-12-05T10:00:34.346Z,76.57
2022-12-05T10:01:43.069Z,77.11
2022-12-05T10:02:45.772Z,76.10
2022-12-05T10:04:05.134Z,76.53
2022-12-05T10:05:17.793Z,77.06
2022-12-05T10:06:28.710Z,77.83
2022-12-05T10:07:34.466Z,77.97
2022-12-05T10:08:58.538Z,77.51
2022-12-05T10:10:38.511Z,76.71
2022-12-05T10:11:44.504Z,77.55
2022-12-05T10:12:56.749Z,78.06
2022-12-05T10:14:06.516Z,77.59
2022-12-05T10:15:16.884Z,77.80
2022-12-05T10:16:26.780Z,76.64
2022-12-05T10:17:34.457Z,77.33
2022-12-05T10:18:48.519Z,77.95
2022-12-05T10:19:49.838Z,77.78
2022-12-05T10:20:48.812Z,77.53
2022-12-05T10:22:10.295Z,77.23
2022-12-05T10:23:41.276Z,77.00
2022-12-05T10:24:40.955Z,77.68
2022-12-05T10:25:39.809Z,77.56
2022-12-05T10:26:58.916Z,77.90
2022-12-05T10:27:59.997Z,76.88
2022-12-05T10:29:03.594Z,76.05
2022-12-05T10:30:04.733Z,74.68
2022-12-05T10:31:07.744Z,75.83
2022-12-05T10:32:18.392Z,76.22
2022-12-05T10:33:21.260Z,75.97
2022-12-05T10:34:39.137Z,76.77
2022-12-05T10:35:40.634Z,76.44
2022-12-05T10:36:37.211Z,77.21
2022-12-05T10:37:33.956Z,77.33
2022-12-05T10:38:31.400Z,75.32
2022-12-05T10:39:28.332Z,75.71
2022-12-05T10:40:30.728Z,75.99
2022-12-05T10:41:28.753Z,75.70
2022-12-05T10:42:35.515Z,75.28
2022-12-05T10:43:34.536Z,75.71
2022-12-05T10:44:33.169Z,75.91
2022-12-05T10:45:29.870Z,75.90
2022-12-05T10:46:26.773Z,75.91
2022-12-05T10:47:23.470Z,76.31
2022-12-05T10:48:21.442Z,76.63
2022-12-05T10:49:19.341Z,75.89
2022-12-05T10:50:28.071Z,75.74
2022-12-05T10:51:31.304Z,76.75
2022-12-05T10:52:32.749Z,77.39
2022-12-05T10:53:39.229Z,77.00
2022-12-05T10:54:47.359Z,77.12
2022-12-05T10:56:28.062Z,77.05
2022-12-05T10:57:20.803Z,77.43
2022-12-05T10:58:25.610Z,77.64
2022-12-05T10:59:25.211Z,78.29
2022-12-05T11:00:30.240Z,78.23
2022-12-05T11:01:28.476Z,77.42
2022-12-05T11:02:31.415Z,77.71
2022-12-05T11:03:31.647Z,77.36
2022-12-05T11:04:43.472Z,76.76
2022-12-05T11:05:41.164Z,77.60
2022-12-05T11:06:37.934Z,78.17
2022-12-05T11:07:43.021Z,78.27
2022-12-05T11:09:03.582Z,77.42
2022-12-05T11:09:59.194Z,77.42
2022-12-05T11:11:29.068Z,77.16
2022-12-05T11:12:36.703Z,76.34
2022-12-05T11:13:34.951Z,77.52
2022-12-05T11:14:34.423Z,77.88
2022-12-05T11:15:31.862Z,78.17
2022-12-05T11:16:33.524Z,77.17
2022-12-05T11:17:36.346Z,77.52
2022-12-05T11:18:34.676Z,77.21
2022-12-05T11:19:36.442Z,77.06
2022-12-05T11:20:37.685Z,75.76
2022-12-05T11:21:42.975Z,75.59
2022-12-05T11:22:42.172Z,76.18
2022-12-05T11:23:41.802Z,76.64
2022-12-05T11:24:39.295Z,78.08
2022-12-05T11:25:36.628Z,77.48
2022-12-05T11:26:37.724Z,76.60
2022-12-05T11:27:34.325Z,76.66
2022-12-05T11:28:34.838Z,75.88
2022-12-05T11:29:37.203Z,76.11
2022-12-05T11:30:33.800Z,76.40
2022-12-05T11:31:32.030Z,76.42
2022-12-05T11:32:33.878Z,76.84
2022-12-05T11:33:33.267Z,76.65
2022-12-05T11:34:37.833Z,77.22
2022-12-05T11:35:34.528Z,78.01
2022-12-05T11:36:46.665Z,77.26
2022-12-05T11:37:49.054Z,77.25
2022-12-05T11:38:45.886Z,77.52
2022-12-05T11:39:42.515Z,77.21
2022-12-05T11:40:41.886Z,77.14
2022-12-05T11:41:59.936Z,77.54
2022-12-05T11:43:24.323Z,77.05
2022-12-05T11:44:39.137Z,77.49
2022-12-05T11:45:44.666Z,77.19
2022-12-05T11:47:11.793Z,78.58
2022-12-05T11:48:39.509Z,78.10
2022-12-05T11:49:53.618Z,78.71
2022-12-05T11:50:58.883Z,78.42
2022-12-05T11:52:29.304Z,77.40
2022-12-05T11:53:47.597Z,77.27
2022-12-05T11:55:04.948Z,77.46
2022-12-05T11:56:36.051Z,77.77
2022-12-05T11:58:01.983Z,77.97
2022-12-05T11:59:01.239Z,77.60
2022-12-05T12:00:03.530Z,77.69
2022-12-05T12:01:18.433Z,78.44
2022-12-05T12:02:48.863Z,78.04
2022-12-05T12:04:12.553Z,77.79
2022-12-05T12:05:24.617Z,77.43
2022-12-05T12:06:21.368Z,77.97
2022-12-05T12:07:26.748Z,78.87
2022-12-05T12:08:29.821Z,79.18
2022-12-05T12:09:45.271Z,78.33
2022-12-05T12:11:24.234Z,77.68
2022-12-05T12:12:58.219Z,77.66
2022-12-05T12:14:16.658Z,79.08
2022-12-05T12:15:50.432Z,77.92
2022-12-05T12:17:07.124Z,77.61
2022-12-05T12:18:22.257Z,77.08
2022-12-05T12:20:13.815Z,76.67
2022-12-05T12:21:38.768Z,77.59
2022-12-05T12:22:54.476Z,78.16
2022-12-05T12:24:06.303Z,77.44
2022-12-05T12:25:40.778Z,78.11
2022-12-05T12:26:57.324Z,78.67
2022-12-05T12:28:23.808Z,79.22
2022-12-05T12:29:38.736Z,78.32
2022-12-05T12:30:47.923Z,78.06
2022-12-05T12:32:05.879Z,77.57
2022-12-05T12:33:05.272Z,77.48
2022-12-05T12:34:10.814Z,76.84
2022-12-05T12:35:26.484Z,77.13
2022-12-05T12:36:36.341Z,77.74
2022-12-05T12:37:45.647Z,77.80
2022-12-05T12:39:15.498Z,78.10
2022-12-05T12:40:20.529Z,78.51
2022-12-05T12:41:26.360Z,77.83
2022-12-05T12:42:35.663Z,76.94
2022-12-05T12:43:56.690Z,77.38
2022-12-05T12:45:14.915Z,77.58
2022-12-05T12:46:49.590Z,76.91
2022-12-05T12:48:04.814Z,76.36
2022-12-05T12:49:22.245Z,75.81
2022-12-05T12:50:23.563Z,76.29
2022-12-05T12:51:20.183Z,77.17
2022-12-05T12:52:28.415Z,77.03
2022-12-05T12:54:02.529Z,77.87
2022-12-05T12:55:25.035Z,77.61
2022-12-05T12:56:28.035Z,77.65
2022-12-05T12:57:46.793Z,78.63
2022-12-05T12:59:03.147Z,78.20
2022-12-05T13:00:05.992Z,78.38
2022-12-05T13:01:12.651Z,78.65
2022-12-05T13:02:22.157Z,78.75
2022-12-05T13:03:31.764Z,78.06
2022-12-05T13:04:34.614Z,76.62
2022-12-05T13:05:44.388Z,76.96
2022-12-05T13:06:55.115Z,76.93
2022-12-05T13:07:58.286Z,77.49
2022-12-05T13:08:59.926Z,77.69
2022-12-05T13:10:02.099Z,77.64
2022-12-05T13:11:01.781Z,78.10
2022-12-05T13:12:11.819Z,78.40
2022-12-05T13:13:13.588Z,78.67
2022-12-05T13:14:14.466Z,77.89
2022-12-05T13:15:15.523Z,78.07
2022-12-05T13:16:21.834Z,77.58
2022-12-05T13:17:22.423Z,78.33
2022-12-05T13:18:22.650Z,78.20
2022-12-05T13:19:37.361Z,78.68
2022-12-05T13:20:36.285Z,77.92
2022-12-05T13:21:33.541Z,77.86
2022-12-05T13:22:30.848Z,78.14